Time;durP1;ratioP1;P1;durP2;ratioP2;P2;SDS_P1;SDS_P2;PMS_P1;PMS_P2;Temp;Humidity;BMP_temperature;BMP_pressure;BME280_temperature;BME280_humidity;BME280_pressure;Samples;Min_cycle;Max_cycle;Signal;HPM_P1;HPM_P2
2022/11/20 00:00:40;;;;;;;112.75;43.70;;;;;;;;;;6253868;28;22271;-76
2022/11/20 00:03:54;;;;;;;104.78;41.50;;;;;;;;;;6252138;28;20164;-68
2022/11/20 00:06:54;;;;;;;;;;;;;;;;;;6251810;28;20049;-62
2022/11/20 00:09:55;;;;;;;106.60;41.03;;;;;;;;;;6251882;28;20354;-61
2022/11/20 00:12:57;;;;;;;126.07;48.00;;;;;;;;;;6254699;28;20079;-61
2022/11/20 00:16:00;;;;;;;109.78;43.95;;;;;;;;;;6251749;28;20140;-63
2022/11/20 00:19:01;;;;;;;124.72;45.17;;;;;;;;;;6253635;28;20052;-62
2022/11/20 00:22:03;;;;;;;116.50;45.30;;;;;;;;;;6253334;28;20508;-62
2022/11/20 00:25:03;;;;;;;113.55;45.15;;;;;;;;;;6251223;28;20049;-61
2022/11/20 00:28:04;;;;;;;106.75;43.20;;;;;;;;;;6250682;28;20044;-62
2022/11/20 00:31:11;;;;;;;117.85;43.20;;;;;;;;;;6259917;28;20178;-62
2022/11/20 00:34:12;;;;;;;110.93;42.25;;;;;;;;;;6247273;28;20481;-65
2022/11/20 00:37:12;;;;;;;119.78;44.22;;;;;;;;;;6244646;28;20046;-63
2022/11/20 00:40:13;;;;;;;102.97;41.63;;;;;;;;;;6246568;28;20033;-60
2022/11/20 00:43:13;;;;;;;115.32;43.75;;;;;;;;;;6245238;28;20056;-66
2022/11/20 00:46:17;;;;;;;105.55;41.30;;;;;;;;;;6243405;28;20096;-63
2022/11/20 00:49:17;;;;;;;106.18;42.25;;;;;;;;;;6244275;28;20041;-63
2022/11/20 00:52:18;;;;;;;108.38;43.53;;;;;;;;;;6246224;28;20061;-70
2022/11/20 00:55:18;;;;;;;104.40;41.65;;;;;;;;;;6245987;28;20068;-74
2022/11/20 00:58:19;;;;;;;121.03;42.97;;;;;;;;;;6243445;28;20067;-66
2022/11/20 01:01:23;;;;;;;105.82;40.65;;;;;;;;;;6244459;28;20041;-63
2022/11/20 01:04:24;;;;;;;109.57;41.95;;;;;;;;;;6244010;28;20457;-63
2022/11/20 01:07:25;;;;;;;107.03;41.78;;;;;;;;;;6243111;28;20038;-62
2022/11/20 01:10:26;;;;;;;114.35;45.65;;;;;;;;;;6246441;28;20049;-63
2022/11/20 01:13:38;;;;;;;122.72;47.70;;;;;;;;;;6244014;28;20049;-62
2022/11/20 01:16:50;;;;;;;117.10;45.97;;;;;;;;;;6242951;28;20053;-63
2022/11/20 01:19:50;;;;;;;120.07;49.50;;;;;;;;;;6243518;28;20041;-67
2022/11/20 01:22:51;;;;;;;104.75;43.55;;;;;;;;;;6243847;28;20050;-62
2022/11/20 01:25:52;;;;;;;104.18;41.97;;;;;;;;;;6244193;28;20056;-62
2022/11/20 01:28:53;;;;;;;103.25;41.05;;;;;;;;;;6249035;28;20041;-62
2022/11/20 01:31:54;;;;;;;101.47;41.40;;;;;;;;;;6255920;28;20080;-62
2022/11/20 01:34:54;;;;;;;109.03;41.00;;;;;;;;;;6251294;28;20503;-63
2022/11/20 01:37:55;;;;;;;106.32;42.53;;;;;;;;;;6246590;28;20041;-61
2022/11/20 01:40:56;;;;;;;96.07;41.60;;;;;;;;;;6251001;28;20048;-62
2022/11/20 01:43:56;;;;;;;102.80;41.55;;;;;;;;;;6251081;28;20045;-61
2022/11/20 01:47:04;;;;;;;107.35;42.33;;;;;;;;;;6247895;28;20045;-61
2022/11/20 01:50:11;;;;;;;108.50;43.10;;;;;;;;;;6249721;28;20072;-71
2022/11/20 01:53:16;;;;;;;112.93;44.17;;;;;;;;;;6259881;28;20053;-60
2022/11/20 01:56:17;;;;;;;107.40;43.55;;;;;;;;;;6264623;28;20488;-66
2022/11/20 01:59:19;;;;;;;105.18;43.75;;;;;;;;;;6249656;28;20814;-63
2022/11/20 02:02:21;;;;;;;107.22;42.75;;;;;;;;;;6250887;28;20059;-62
2022/11/20 02:05:33;;;;;;;107.40;44.07;;;;;;;;;;6251819;28;20419;-71
2022/11/20 02:08:36;;;;;;;108.82;42.17;;;;;;;;;;6258868;28;20310;-62
2022/11/20 02:11:37;;;;;;;104.65;40.42;;;;;;;;;;6265412;28;20090;-62
2022/11/20 02:14:37;;;;;;;100.32;40.05;;;;;;;;;;6251969;28;20041;-62
2022/11/20 02:17:38;;;;;;;114.75;43.50;;;;;;;;;;6250619;28;20451;-62
2022/11/20 02:20:41;;;;;;;101.10;43.15;;;;;;;;;;6248037;28;20049;-72
2022/11/20 02:24:02;;;;;;;104.03;42.08;;;;;;;;;;6258887;28;20071;-67
2022/11/20 02:27:08;;;;;;;105.00;42.08;;;;;;;;;;6262488;28;20084;-62
2022/11/20 02:30:10;;;;;;;102.75;42.75;;;;;;;;;;6266441;28;20411;-62
2022/11/20 02:33:12;;;;;;;105.50;41.85;;;;;;;;;;6251457;28;20064;-62
2022/11/20 02:36:15;;;;;;;101.10;43.05;;;;;;;;;;6251921;28;20049;-62
2022/11/20 02:39:19;;;;;;;109.35;42.65;;;;;;;;;;6249745;28;20045;-64
2022/11/20 02:42:20;;;;;;;102.88;40.35;;;;;;;;;;6247968;28;20395;-61
2022/11/20 02:45:20;;;;;;;115.28;43.20;;;;;;;;;;6249342;28;20079;-62
2022/11/20 02:48:21;;;;;;;97.30;41.92;;;;;;;;;;6251561;28;20060;-62
2022/11/20 02:51:23;;;;;;;106.18;41.05;;;;;;;;;;6254799;28;20053;-62
2022/11/20 02:54:24;;;;;;;100.88;40.75;;;;;;;;;;6257325;28;20077;-61
2022/11/20 02:57:24;;;;;;;108.38;42.30;;;;;;;;;;6254587;28;20075;-62
2022/11/20 03:00:25;;;;;;;112.40;43.17;;;;;;;;;;6261784;28;20511;-62
2022/11/20 03:03:25;;;;;;;106.45;44.15;;;;;;;;;;6257163;28;20049;-63
2022/11/20 03:06:26;;;;;;;105.40;42.92;;;;;;;;;;6257808;28;20083;-63
2022/11/20 03:09:26;;;;;;;108.18;42.65;;;;;;;;;;6256266;28;20057;-62
2022/11/20 03:12:27;;;;;;;114.38;42.85;;;;;;;;;;6257048;28;20045;-63
2022/11/20 03:15:27;;;;;;;110.55;41.60;;;;;;;;;;6258555;28;20046;-64
2022/11/20 03:18:28;;;;;;;99.65;42.35;;;;;;;;;;6257678;28;20877;-64
2022/11/20 03:21:29;;;;;;;107.13;41.33;;;;;;;;;;6254914;28;20083;-62
2022/11/20 03:24:30;;;;;;;101.60;42.97;;;;;;;;;;6258130;28;20060;-62
2022/11/20 03:27:34;;;;;;;107.15;41.60;;;;;;;;;;6268621;28;20059;-62
2022/11/20 03:30:35;;;;;;;103.28;41.75;;;;;;;;;;6258897;28;20053;-62
2022/11/20 03:33:35;;;;;;;109.43;42.13;;;;;;;;;;6261521;28;20049;-62
2022/11/20 03:36:41;;;;;;;100.78;41.72;;;;;;;;;;6246683;28;20604;-62
2022/11/20 03:39:41;;;;;;;109.28;43.05;;;;;;;;;;6256473;28;20044;-61
2022/11/20 03:42:45;;;;;;;105.50;43.53;;;;;;;;;;6257557;28;20068;-60
2022/11/20 03:45:45;;;;;;;102.30;41.50;;;;;;;;;;6258301;28;20619;-62
2022/11/20 03:48:46;;;;;;;108.05;40.67;;;;;;;;;;6256026;28;20045;-63
2022/11/20 03:51:47;;;;;;;95.47;39.45;;;;;;;;;;6269656;28;20040;-60
2022/11/20 03:54:47;;;;;;;97.00;40.55;;;;;;;;;;6262038;28;20128;-59
2022/11/20 03:57:48;;;;;;;103.75;41.13;;;;;;;;;;6269113;28;20045;-69
2022/11/20 04:00:49;;;;;;;95.60;40.17;;;;;;;;;;6248226;28;20053;-62
2022/11/20 04:03:52;;;;;;;100.18;39.22;;;;;;;;;;6251635;28;20163;-62
2022/11/20 04:06:53;;;;;;;95.93;39.35;;;;;;;;;;6262142;28;20049;-70
2022/11/20 04:09:53;;;;;;;87.35;36.85;;;;;;;;;;6257282;28;20484;-62
2022/11/20 04:12:54;;;;;;;89.13;37.58;;;;;;;;;;6266995;28;20045;-70
2022/11/20 04:15:57;;;;;;;88.85;37.28;;;;;;;;;;6257765;28;20484;-65
2022/11/20 04:19:00;;;;;;;100.93;38.10;;;;;;;;;;6264036;28;20507;-61
2022/11/20 04:22:01;;;;;;;96.65;38.53;;;;;;;;;;6252871;28;20046;-62
2022/11/20 04:25:01;;;;;;;95.90;38.80;;;;;;;;;;6253096;28;20052;-60
2022/11/20 04:28:02;;;;;;;93.93;37.50;;;;;;;;;;6249828;28;20403;-62
2022/11/20 04:31:11;;;;;;;94.28;39.33;;;;;;;;;;6268050;28;20559;-60
2022/11/20 04:34:11;;;;;;;86.68;36.22;;;;;;;;;;6270198;28;20144;-62
2022/11/20 04:37:12;;;;;;;99.25;40.95;;;;;;;;;;6270293;28;20124;-61
2022/11/20 04:40:12;;;;;;;97.43;38.92;;;;;;;;;;6269887;28;20045;-62
2022/11/20 04:43:13;;;;;;;96.25;38.53;;;;;;;;;;6269586;28;20056;-62
2022/11/20 04:46:14;;;;;;;88.88;37.70;;;;;;;;;;6270133;28;20049;-62
2022/11/20 04:49:15;;;;;;;93.80;36.97;;;;;;;;;;6270168;28;20395;-62
2022/11/20 04:52:15;;;;;;;94.47;35.72;;;;;;;;;;6268871;28;20286;-67
2022/11/20 04:55:16;;;;;;;94.22;38.53;;;;;;;;;;6269752;28;20099;-65
2022/11/20 04:58:17;;;;;;;93.50;37.17;;;;;;;;;;6269911;28;20047;-63
2022/11/20 05:01:20;;;;;;;91.43;37.90;;;;;;;;;;6267679;28;20041;-71
2022/11/20 05:04:21;;;;;;;92.13;36.88;;;;;;;;;;6269661;28;20079;-62
2022/11/20 05:07:22;;;;;;;86.78;37.00;;;;;;;;;;6269850;28;20053;-61
2022/11/20 05:10:23;;;;;;;86.40;36.42;;;;;;;;;;6267452;28;20074;-68
2022/11/20 05:13:24;;;;;;;84.88;35.08;;;;;;;;;;6269226;28;20106;-68
2022/11/20 05:16:25;;;;;;;89.30;34.97;;;;;;;;;;6269475;28;20045;-62
2022/11/20 05:19:26;;;;;;;87.18;33.63;;;;;;;;;;6268962;28;20132;-64
2022/11/20 05:22:27;;;;;;;88.23;34.53;;;;;;;;;;6267820;28;20448;-66
2022/11/20 05:25:28;;;;;;;85.30;34.95;;;;;;;;;;6249830;28;20377;-61
2022/11/20 05:28:30;;;;;;;84.93;35.20;;;;;;;;;;6251128;28;20053;-62
2022/11/20 05:31:31;;;;;;;81.03;34.47;;;;;;;;;;6250648;28;20045;-62
2022/11/20 05:34:31;;;;;;;82.32;34.53;;;;;;;;;;6249563;28;20053;-63
2022/11/20 05:37:33;;;;;;;88.32;35.83;;;;;;;;;;6257907;28;20053;-62
2022/11/20 05:40:34;;;;;;;83.10;36.65;;;;;;;;;;6247199;28;20096;-63
2022/11/20 05:43:36;;;;;;;90.13;35.22;;;;;;;;;;6250492;28;20828;-62
2022/11/20 05:46:37;;;;;;;81.55;33.55;;;;;;;;;;6264190;28;20053;-62
2022/11/20 05:49:37;;;;;;;80.45;33.10;;;;;;;;;;6255857;28;20523;-62
2022/11/20 05:52:38;;;;;;;79.10;35.63;;;;;;;;;;6251084;28;20041;-62
2022/11/20 05:55:39;;;;;;;87.07;35.50;;;;;;;;;;6251565;28;20128;-64
2022/11/20 05:58:39;;;;;;;86.15;34.67;;;;;;;;;;6251972;28;20049;-62
2022/11/20 06:01:40;;;;;;;75.60;32.72;;;;;;;;;;6248019;28;20045;-65
2022/11/20 06:04:41;;;;;;;89.13;35.72;;;;;;;;;;6251171;28;20054;-62
2022/11/20 06:07:41;;;;;;;91.55;34.47;;;;;;;;;;6249558;28;20443;-63
2022/11/20 06:10:42;;;;;;;82.95;33.92;;;;;;;;;;6256556;28;20045;-63
2022/11/20 06:13:43;;;;;;;91.55;35.10;;;;;;;;;;6247651;28;20145;-61
2022/11/20 06:16:44;;;;;;;83.70;36.53;;;;;;;;;;6260189;28;20056;-63
2022/11/20 06:19:44;;;;;;;93.28;37.17;;;;;;;;;;6259880;28;20048;-63
2022/11/20 06:22:45;;;;;;;76.90;33.03;;;;;;;;;;6256101;28;20052;-62
2022/11/20 06:25:46;;;;;;;78.18;34.63;;;;;;;;;;6256604;28;20048;-62
2022/11/20 06:28:46;;;;;;;85.97;35.55;;;;;;;;;;6250488;28;20120;-68
2022/11/20 06:31:47;;;;;;;87.15;34.55;;;;;;;;;;6247171;28;20048;-62
2022/11/20 06:34:47;;;;;;;91.07;35.95;;;;;;;;;;6260798;28;20589;-67
2022/11/20 06:37:48;;;;;;;85.32;36.55;;;;;;;;;;6256686;28;20065;-62
2022/11/20 06:40:49;;;;;;;105.95;40.80;;;;;;;;;;6248977;28;20053;-68
2022/11/20 06:43:50;;;;;;;120.28;44.38;;;;;;;;;;6250234;28;20060;-61
2022/11/20 06:46:50;;;;;;;119.30;45.30;;;;;;;;;;6248943;28;20053;-62
2022/11/20 06:49:51;;;;;;;121.32;47.22;;;;;;;;;;6247510;28;20045;-63
2022/11/20 06:52:51;;;;;;;115.68;46.03;;;;;;;;;;6247937;28;20041;-61
2022/11/20 06:55:55;;;;;;;131.63;47.50;;;;;;;;;;6254758;28;20718;-62
2022/11/20 06:58:56;;;;;;;133.77;46.60;;;;;;;;;;6242810;28;20041;-73
2022/11/20 07:01:56;;;;;;;113.65;46.38;;;;;;;;;;6243624;28;20049;-62
2022/11/20 07:04:57;;;;;;;108.97;43.70;;;;;;;;;;6246770;28;20052;-66
2022/11/20 07:07:58;;;;;;;123.68;46.05;;;;;;;;;;6249646;28;20048;-73
2022/11/20 07:11:00;;;;;;;118.15;46.65;;;;;;;;;;6252435;28;20060;-66
2022/11/20 07:14:01;;;;;;;125.63;47.58;;;;;;;;;;6249130;28;20042;-62
2022/11/20 07:17:02;;;;;;;127.07;49.17;;;;;;;;;;6250694;28;20496;-62
2022/11/20 07:20:03;;;;;;;134.85;48.28;;;;;;;;;;6247511;28;20584;-62
2022/11/20 07:23:03;;;;;;;129.63;49.95;;;;;;;;;;6253343;28;20049;-75
2022/11/20 07:26:09;;;;;;;124.53;49.75;;;;;;;;;;6238536;28;20409;-62
2022/11/20 07:29:09;;;;;;;121.47;48.65;;;;;;;;;;6260576;28;20131;-64
2022/11/20 07:32:10;;;;;;;122.32;47.53;;;;;;;;;;6265799;28;20443;-66
2022/11/20 07:35:10;;;;;;;117.95;49.63;;;;;;;;;;6243689;28;20106;-65
2022/11/20 07:38:11;;;;;;;133.85;53.15;;;;;;;;;;6270859;28;20430;-64
2022/11/20 07:41:11;;;;;;;151.68;58.20;;;;;;;;;;6270492;28;20087;-65
2022/11/20 07:44:12;;;;;;;148.68;59.85;;;;;;;;;;6252227;28;20084;-63
2022/11/20 07:47:13;;;;;;;163.75;64.57;;;;;;;;;;6246575;28;20060;-64
2022/11/20 07:50:14;;;;;;;160.50;65.88;;;;;;;;;;6269561;28;20045;-64
2022/11/20 07:53:20;;;;;;;167.20;69.43;;;;;;;;;;6253113;28;20053;-66
2022/11/20 07:56:21;;;;;;;150.50;65.30;;;;;;;;;;6270057;28;20145;-66
2022/11/20 07:59:21;;;;;;;191.55;81.20;;;;;;;;;;6256137;28;20057;-64
2022/11/20 08:02:22;;;;;;;184.90;74.88;;;;;;;;;;6258413;28;20067;-66
2022/11/20 08:05:23;;;;;;;181.60;73.43;;;;;;;;;;6267024;28;20098;-65
2022/11/20 08:08:24;;;;;;;222.23;82.78;;;;;;;;;;6270218;28;20053;-64
2022/11/20 08:14:51;;;;;;;231.02;84.55;;;;;;;;;;6234058;28;20045;-68
2022/11/20 08:17:52;;;;;;;147.07;63.58;;;;;;;;;;6254721;28;20416;-68
2022/11/20 08:20:52;;;;;;;136.00;55.42;;;;;;;;;;6257807;28;20131;-67
2022/11/20 08:23:53;;;;;;;146.57;58.35;;;;;;;;;;6249265;28;20381;-67
2022/11/20 08:26:53;;;;;;;141.80;57.28;;;;;;;;;;6247382;28;20076;-67
2022/11/20 08:29:54;;;;;;;147.68;64.55;;;;;;;;;;6246073;28;20053;-70
2022/11/20 08:33:01;;;;;;;149.88;59.83;;;;;;;;;;6244150;28;20527;-69
2022/11/20 08:36:03;;;;;;;142.20;60.90;;;;;;;;;;6247366;28;20507;-67
2022/11/20 08:39:04;;;;;;;174.75;71.20;;;;;;;;;;6257946;28;20067;-63
2022/11/20 08:42:08;;;;;;;143.68;59.70;;;;;;;;;;6267973;28;20080;-66
2022/11/20 08:45:09;;;;;;;148.80;62.17;;;;;;;;;;6245099;28;20048;-65
2022/11/20 08:48:09;;;;;;;145.95;62.70;;;;;;;;;;6269586;28;20738;-67
2022/11/20 08:51:11;;;;;;;207.77;78.82;;;;;;;;;;6268649;28;20477;-67
2022/11/20 08:54:11;;;;;;;194.60;74.70;;;;;;;;;;6261116;28;20045;-65
2022/11/20 08:57:12;;;;;;;162.95;64.63;;;;;;;;;;6263909;28;20860;-64
2022/11/20 09:00:13;;;;;;;168.23;66.63;;;;;;;;;;6255299;28;20507;-65
2022/11/20 09:03:14;;;;;;;157.98;64.55;;;;;;;;;;6243567;28;20128;-65
2022/11/20 09:06:15;;;;;;;147.18;60.05;;;;;;;;;;6248549;28;20102;-67
2022/11/20 09:09:17;;;;;;;164.15;63.33;;;;;;;;;;6268354;28;20045;-65
2022/11/20 09:12:18;;;;;;;139.20;58.25;;;;;;;;;;6267688;28;20094;-65
2022/11/20 09:15:20;;;;;;;135.73;56.10;;;;;;;;;;6262200;28;20045;-65
2022/11/20 09:18:21;;;;;;;132.80;54.50;;;;;;;;;;6268763;28;20057;-67
2022/11/20 09:21:23;;;;;;;127.15;54.35;;;;;;;;;;6267770;28;20052;-71
2022/11/20 09:24:24;;;;;;;141.85;55.45;;;;;;;;;;6251173;28;20052;-69
2022/11/20 09:27:24;;;;;;;136.20;55.15;;;;;;;;;;6268874;28;20052;-69
2022/11/20 09:30:26;;;;;;;140.80;57.03;;;;;;;;;;6266741;28;20484;-67
2022/11/20 09:33:26;;;;;;;131.75;54.13;;;;;;;;;;6268078;28;20045;-68
2022/11/20 09:36:27;;;;;;;122.65;49.20;;;;;;;;;;6268487;28;20387;-71
2022/11/20 09:39:28;;;;;;;125.30;50.90;;;;;;;;;;6268835;28;20069;-69
2022/11/20 09:43:08;;;;;;;128.30;52.83;;;;;;;;;;6267371;28;20056;-66
2022/11/20 09:46:59;;;;;;;132.70;54.58;;;;;;;;;;6263295;28;20053;-67
2022/11/20 09:50:24;;;;;;;138.27;56.40;;;;;;;;;;6180528;28;20053;-65
2022/11/20 09:53:36;;;;;;;456.48;143.45;;;;;;;;;;6268118;28;20067;-70
2022/11/20 09:56:40;;;;;;;156.30;59.55;;;;;;;;;;6267966;28;20080;-67
2022/11/20 09:59:43;;;;;;;130.50;55.90;;;;;;;;;;6265911;28;20051;-66
2022/11/20 10:02:55;;;;;;;147.73;57.78;;;;;;;;;;6268120;28;20052;-71
2022/11/20 10:06:00;;;;;;;150.20;56.67;;;;;;;;;;6249789;28;20056;-68
2022/11/20 10:09:06;;;;;;;137.38;53.75;;;;;;;;;;6252279;28;20041;-68
2022/11/20 10:12:19;;;;;;;149.32;55.75;;;;;;;;;;6258855;28;20041;-67
2022/11/20 10:15:30;;;;;;;142.65;57.50;;;;;;;;;;6263189;28;20052;-66
2022/11/20 10:18:48;;;;;;;152.55;60.10;;;;;;;;;;6265427;28;20572;-71
2022/11/20 10:22:07;;;;;;;173.75;66.05;;;;;;;;;;6265966;28;20467;-69
2022/11/20 10:25:40;;;;;;;165.18;64.68;;;;;;;;;;6267639;28;20480;-69
2022/11/20 10:28:44;;;;;;;;;;;;;;;;;;6254939;28;20338;-70
2022/11/20 10:31:50;;;;;;;140.02;56.63;;;;;;;;;;6256618;28;20367;-68
2022/11/20 10:35:08;;;;;;;141.68;55.17;;;;;;;;;;6261495;28;20038;-70
2022/11/20 10:38:18;;;;;;;144.60;57.28;;;;;;;;;;6267014;28;20037;-67
2022/11/20 10:41:33;;;;;;;152.88;58.90;;;;;;;;;;6267471;28;20518;-66
2022/11/20 10:48:07;;;;;;;155.70;58.00;;;;;;;;;;6266204;28;20051;-69
2022/11/20 10:51:18;;;;;;;165.30;62.90;;;;;;;;;;6265662;28;20045;-68
2022/11/20 10:54:41;;;;;;;168.77;63.70;;;;;;;;;;6267559;28;20136;-67
2022/11/20 10:58:09;;;;;;;154.73;56.95;;;;;;;;;;6267381;28;20079;-67
2022/11/20 11:01:17;;;;;;;169.32;61.55;;;;;;;;;;6262547;28;20064;-66
2022/11/20 11:04:32;;;;;;;166.32;59.50;;;;;;;;;;6265095;28;20517;-68
2022/11/20 11:07:38;;;;;;;197.65;64.70;;;;;;;;;;6266950;28;20052;-66
2022/11/20 11:10:57;;;;;;;159.15;54.60;;;;;;;;;;6271527;28;20056;-66
2022/11/20 11:14:15;;;;;;;159.77;55.63;;;;;;;;;;6270591;28;20041;-68
2022/11/20 11:17:28;;;;;;;167.75;54.38;;;;;;;;;;6271316;28;20053;-67
2022/11/20 11:20:29;;;;;;;212.88;66.70;;;;;;;;;;6272223;28;20064;-65
2022/11/20 11:23:40;;;;;;;226.63;71.68;;;;;;;;;;6271945;28;20099;-68
2022/11/20 11:26:55;;;;;;;209.13;65.60;;;;;;;;;;6270949;28;20056;-67
2022/11/20 11:30:13;;;;;;;182.13;60.35;;;;;;;;;;6271020;28;20546;-66
2022/11/20 11:33:23;;;;;;;174.88;55.28;;;;;;;;;;6271641;28;20041;-63
2022/11/20 11:36:24;;;;;;;155.77;54.05;;;;;;;;;;6271894;28;20735;-63
2022/11/20 11:39:27;;;;;;;177.38;62.80;;;;;;;;;;6270748;28;20053;-72
2022/11/20 11:42:28;;;;;;;192.60;68.20;;;;;;;;;;6271879;28;20053;-63
2022/11/20 11:45:29;;;;;;;186.32;63.88;;;;;;;;;;6271079;28;20060;-64
2022/11/20 11:48:29;;;;;;;155.82;55.80;;;;;;;;;;6265989;28;20163;-67
2022/11/20 11:52:01;;;;;;;155.43;54.47;;;;;;;;;;6270429;28;20051;-63
2022/11/20 11:55:03;;;;;;;153.20;54.73;;;;;;;;;;6271477;28;20057;-66
2022/11/20 11:58:27;;;;;;;179.55;60.17;;;;;;;;;;6271289;28;20312;-62
2022/11/20 12:01:38;;;;;;;182.93;58.17;;;;;;;;;;6269969;28;20049;-63
2022/11/20 12:04:58;;;;;;;163.77;53.22;;;;;;;;;;6270821;28;20381;-62
2022/11/20 12:08:05;;;;;;;156.55;51.45;;;;;;;;;;6270773;28;20073;-63
2022/11/20 12:11:23;;;;;;;172.52;56.42;;;;;;;;;;6271389;28;20060;-69
2022/11/20 12:14:35;;;;;;;145.05;50.83;;;;;;;;;;6269224;28;20514;-62
2022/11/20 12:17:35;;;;;;;150.45;49.33;;;;;;;;;;6270236;28;20081;-64
2022/11/20 12:20:45;;;;;;;146.23;49.67;;;;;;;;;;6270013;28;20455;-64
2022/11/20 12:24:06;;;;;;;140.05;48.50;;;;;;;;;;6269800;28;20049;-66
2022/11/20 12:27:13;;;;;;;142.82;45.40;;;;;;;;;;6269352;28;20053;-62
2022/11/20 12:30:16;;;;;;;132.63;45.97;;;;;;;;;;6269639;28;20094;-61
2022/11/20 12:33:35;;;;;;;191.35;61.22;;;;;;;;;;6272487;28;20049;-61
2022/11/20 12:36:50;;;;;;;134.55;48.45;;;;;;;;;;6269702;28;20045;-62
2022/11/20 12:39:58;;;;;;;142.82;50.67;;;;;;;;;;6268842;28;20607;-64
2022/11/20 12:47:01;;;;;;;136.85;46.10;;;;;;;;;;6269783;28;20045;-73
2022/11/20 12:50:33;;;;;;;132.13;43.92;;;;;;;;;;6267044;28;20041;-63
2022/11/20 12:53:42;;;;;;;;;;;;;;;;;;6269113;28;20095;-69
2022/11/20 12:56:53;;;;;;;131.75;44.08;;;;;;;;;;6269130;28;20291;-64
2022/11/20 13:00:11;;;;;;;133.68;45.30;;;;;;;;;;6269550;28;20148;-65
2022/11/20 13:03:42;;;;;;;124.95;42.55;;;;;;;;;;6269905;28;20056;-65
2022/11/20 13:06:44;;;;;;;134.57;44.40;;;;;;;;;;6268363;28;20044;-65
2022/11/20 13:09:49;;;;;;;164.83;56.07;;;;;;;;;;6253100;28;20056;-66
2022/11/20 13:13:01;;;;;;;177.43;59.88;;;;;;;;;;6273366;28;20305;-67
2022/11/20 13:16:06;;;;;;;177.27;57.33;;;;;;;;;;6267455;28;20406;-64
2022/11/20 13:19:13;;;;;;;184.55;56.88;;;;;;;;;;6262720;28;20110;-66
2022/11/20 13:22:27;;;;;;;165.43;53.58;;;;;;;;;;6265310;28;20468;-68
2022/11/20 13:25:31;;;;;;;160.80;52.08;;;;;;;;;;6270593;28;20061;-65
2022/11/20 13:28:32;;;;;;;161.40;55.08;;;;;;;;;;6264655;28;20048;-64
2022/11/20 13:31:35;;;;;;;177.70;61.45;;;;;;;;;;6270577;28;20055;-65
2022/11/20 13:34:36;;;;;;;152.40;51.38;;;;;;;;;;6264140;28;20091;-70
2022/11/20 13:37:37;;;;;;;141.43;49.20;;;;;;;;;;6266382;28;20049;-71
2022/11/20 13:41:27;;;;;;;142.45;50.80;;;;;;;;;;6260654;28;20060;-70
2022/11/20 13:44:32;;;;;;;140.65;48.17;;;;;;;;;;6268233;28;20281;-69
2022/11/20 13:47:33;;;;;;;;;;;;;;;;;;6266895;28;20044;-67
2022/11/20 13:50:43;;;;;;;135.80;46.10;;;;;;;;;;6269060;28;19924;-68
2022/11/20 13:54:13;;;;;;;176.90;53.03;;;;;;;;;;6263588;28;20041;-68
2022/11/20 13:57:29;;;;;;;316.60;85.95;;;;;;;;;;6262732;28;20055;-68
2022/11/20 14:00:30;;;;;;;240.60;70.20;;;;;;;;;;6263414;28;20052;-67
2022/11/20 14:03:33;;;;;;;180.85;57.67;;;;;;;;;;6270403;28;21180;-67
2022/11/20 14:06:45;;;;;;;207.77;63.67;;;;;;;;;;6264307;28;20075;-68
2022/11/20 14:09:57;;;;;;;178.57;56.47;;;;;;;;;;6260830;28;20059;-67
2022/11/20 14:12:58;;;;;;;190.75;59.22;;;;;;;;;;6263111;28;20041;-66
2022/11/20 14:15:59;;;;;;;185.15;57.67;;;;;;;;;;6271317;28;20052;-65
2022/11/20 14:19:21;;;;;;;178.48;55.55;;;;;;;;;;6264618;28;20053;-65
2022/11/20 14:22:26;;;;;;;168.70;55.50;;;;;;;;;;6267095;28;20663;-68
2022/11/20 14:25:30;;;;;;;162.18;54.70;;;;;;;;;;6269487;28;20049;-71
2022/11/20 14:28:31;;;;;;;223.10;69.40;;;;;;;;;;6255745;28;21188;-70
2022/11/20 14:31:33;;;;;;;217.32;66.53;;;;;;;;;;6264402;28;20057;-66
2022/11/20 14:34:39;;;;;;;230.65;73.75;;;;;;;;;;6266305;28;20049;-64
2022/11/20 14:37:40;;;;;;;214.45;67.35;;;;;;;;;;6268252;28;20055;-64
2022/11/20 14:40:42;;;;;;;239.15;70.50;;;;;;;;;;6264501;28;20041;-62
2022/11/20 14:43:46;;;;;;;200.70;59.63;;;;;;;;;;6262626;28;20094;-67
2022/11/20 14:46:47;;;;;;;202.55;61.90;;;;;;;;;;6265094;28;20048;-66
2022/11/20 14:49:49;;;;;;;181.98;56.85;;;;;;;;;;6262436;28;20102;-69
2022/11/20 14:52:55;;;;;;;197.75;59.40;;;;;;;;;;6258400;28;20051;-71
2022/11/20 14:55:58;;;;;;;241.25;69.32;;;;;;;;;;6262718;28;20170;-70
2022/11/20 14:58:59;;;;;;;249.55;71.82;;;;;;;;;;6267425;28;20694;-70
2022/11/20 15:02:05;;;;;;;186.82;62.58;;;;;;;;;;6260741;28;20059;-70
2022/11/20 15:05:07;;;;;;;193.18;66.13;;;;;;;;;;6266329;28;20513;-72
2022/11/20 15:08:10;;;;;;;202.75;65.32;;;;;;;;;;6263713;28;20120;-66
2022/11/20 15:11:32;;;;;;;214.50;67.93;;;;;;;;;;6265738;28;20048;-71
2022/11/20 15:14:32;;;;;;;207.90;65.33;;;;;;;;;;6272235;28;20084;-70
2022/11/20 15:17:37;;;;;;;206.25;67.28;;;;;;;;;;6246428;28;20067;-66
2022/11/20 15:20:37;;;;;;;208.98;69.65;;;;;;;;;;6261994;28;20501;-68
2022/11/20 15:23:38;;;;;;;290.15;90.88;;;;;;;;;;6261970;28;20044;-67
2022/11/20 15:26:39;;;;;;;284.38;88.32;;;;;;;;;;6264686;28;20053;-67
2022/11/20 15:29:41;;;;;;;409.52;117.40;;;;;;;;;;6263472;28;20518;-65
2022/11/20 15:32:43;;;;;;;490.88;143.38;;;;;;;;;;6266920;28;20052;-65
2022/11/20 15:35:44;;;;;;;310.90;98.57;;;;;;;;;;6268344;28;20056;-67
2022/11/20 15:38:45;;;;;;;339.10;107.28;;;;;;;;;;6266644;28;20059;-65
2022/11/20 15:41:46;;;;;;;266.63;96.85;;;;;;;;;;6265424;28;20041;-69
2022/11/20 15:44:47;;;;;;;239.98;89.15;;;;;;;;;;6269877;28;20060;-65
2022/11/20 15:47:48;;;;;;;227.23;76.93;;;;;;;;;;6266355;28;20471;-65
2022/11/20 15:51:10;;;;;;;225.15;80.93;;;;;;;;;;6259510;28;20416;-69
2022/11/20 15:54:13;;;;;;;212.75;73.03;;;;;;;;;;6260746;28;20053;-65
2022/11/20 15:57:14;;;;;;;247.50;85.18;;;;;;;;;;6260402;28;20431;-68
2022/11/20 16:00:15;;;;;;;362.08;97.90;;;;;;;;;;6261007;28;20056;-67
2022/11/20 16:03:16;;;;;;;543.90;138.10;;;;;;;;;;6262224;28;20033;-66
2022/11/20 16:06:17;;;;;;;564.63;145.60;;;;;;;;;;6263175;28;20044;-68
2022/11/20 16:09:18;;;;;;;490.33;133.55;;;;;;;;;;6263532;28;20060;-66
2022/11/20 16:15:46;;;;;;;397.13;113.78;;;;;;;;;;6254950;28;20045;-64
2022/11/20 16:18:48;;;;;;;470.08;131.45;;;;;;;;;;6266712;28;20060;-67
2022/11/20 16:21:48;;;;;;;348.63;107.95;;;;;;;;;;6268888;28;20122;-67
2022/11/20 16:24:51;;;;;;;248.43;88.75;;;;;;;;;;6263173;28;20049;-70
2022/11/20 16:27:51;;;;;;;254.63;91.03;;;;;;;;;;6272131;28;20118;-64
2022/11/20 16:30:52;;;;;;;233.45;82.38;;;;;;;;;;6262339;28;20103;-67
2022/11/20 16:33:54;;;;;;;265.65;96.43;;;;;;;;;;6263365;28;20056;-66
2022/11/20 16:36:55;;;;;;;225.30;79.82;;;;;;;;;;6271810;28;20053;-65
2022/11/20 16:39:56;;;;;;;235.00;82.57;;;;;;;;;;6269810;28;20052;-64
2022/11/20 16:42:57;;;;;;;250.63;90.73;;;;;;;;;;6267381;28;20071;-65
2022/11/20 16:45:59;;;;;;;275.40;95.38;;;;;;;;;;6262844;28;20136;-65
2022/11/20 16:49:04;;;;;;;;;;;;;;;;;;6247041;28;20125;-63
2022/11/20 16:52:04;;;;;;;249.38;86.28;;;;;;;;;;6269195;28;19929;-71
2022/11/20 16:55:07;;;;;;;291.83;103.13;;;;;;;;;;6265459;28;20110;-69
2022/11/20 16:58:08;;;;;;;290.65;105.45;;;;;;;;;;6262136;28;20084;-69
2022/11/20 17:01:11;;;;;;;280.48;99.15;;;;;;;;;;6263848;28;20047;-68
2022/11/20 17:04:11;;;;;;;265.40;91.95;;;;;;;;;;6264254;28;20045;-69
2022/11/20 17:07:12;;;;;;;360.92;116.78;;;;;;;;;;6264491;28;20438;-70
2022/11/20 17:10:12;;;;;;;273.40;99.65;;;;;;;;;;6261994;28;20088;-69
2022/11/20 17:13:13;;;;;;;258.85;88.10;;;;;;;;;;6274697;28;20098;-68
2022/11/20 17:16:19;;;;;;;245.60;86.30;;;;;;;;;;6266446;28;20048;-67
2022/11/20 17:19:20;;;;;;;484.30;158.68;;;;;;;;;;6261225;28;20107;-71
2022/11/20 17:22:20;;;;;;;473.30;151.43;;;;;;;;;;6259717;28;20884;-70
2022/11/20 17:25:21;;;;;;;337.23;118.25;;;;;;;;;;6259665;28;20546;-66
2022/11/20 17:28:22;;;;;;;280.38;98.88;;;;;;;;;;6254301;28;21576;-69
2022/11/20 17:31:23;;;;;;;276.52;95.00;;;;;;;;;;6264066;28;20401;-73
2022/11/20 17:34:24;;;;;;;278.05;100.28;;;;;;;;;;6268592;28;20057;-65
2022/11/20 17:37:24;;;;;;;323.73;117.00;;;;;;;;;;6271747;28;20049;-68
2022/11/20 17:40:25;;;;;;;337.90;116.40;;;;;;;;;;6264744;28;20134;-68
2022/11/20 17:43:25;;;;;;;343.73;114.93;;;;;;;;;;6266937;28;20048;-64
2022/11/20 17:46:28;;;;;;;364.50;121.43;;;;;;;;;;6267404;28;20071;-70
2022/11/20 17:49:29;;;;;;;373.55;127.22;;;;;;;;;;6262898;28;20052;-68
2022/11/20 17:52:29;;;;;;;563.25;171.32;;;;;;;;;;6269083;28;20052;-67
2022/11/20 17:57:51;;;;;;;574.88;171.45;;;;;;;;;;6267833;28;20088;-66